Time;durP1;ratioP1;P1;durP2;ratioP2;P2;SDS_P1;SDS_P2;PMS_P1;PMS_P2;Temp;Humidity;BMP_temperature;BMP_pressure;BME280_temperature;BME280_humidity;BME280_pressure;Samples;Min_cycle;Max_cycle;Signal;HPM_P1;HPM_P2
2021/06/05 00:01:34;;;;;;;61.08;34.53;;;17.40;99.90;;;;;;5032772;28;20049;-76
2021/06/05 00:04:00;;;;;;;55.17;32.53;;;17.40;99.90;;;;;;5048298;28;20044;-76
2021/06/05 00:06:27;;;;;;;51.88;32.72;;;17.30;99.90;;;;;;5020749;28;20033;-76
2021/06/05 00:08:55;;;;;;;51.63;31.02;;;17.30;99.90;;;;;;5043710;28;20152;-75
2021/06/05 00:11:27;;;;;;;50.22;30.42;;;17.20;99.90;;;;;;5030912;28;20069;-75
2021/06/05 00:13:56;;;;;;;48.25;29.98;;;17.20;99.90;;;;;;5030934;28;20092;-75
2021/06/05 00:16:27;;;;;;;42.65;27.17;;;17.20;99.90;;;;;;5029455;28;20488;-75
2021/06/05 00:18:52;;;;;;;41.25;26.63;;;17.10;99.90;;;;;;5032746;28;20033;-75
2021/06/05 00:21:22;;;;;;;39.30;25.65;;;17.10;99.90;;;;;;5031603;28;20037;-75
2021/06/05 00:23:48;;;;;;;37.22;25.60;;;17.00;99.90;;;;;;5033377;28;20053;-74
2021/06/05 00:26:15;;;;;;;35.15;25.00;;;17.00;99.90;;;;;;5032755;28;20076;-75
2021/06/05 00:28:41;;;;;;;37.33;25.50;;;17.00;99.90;;;;;;5032711;28;20132;-75
2021/06/05 00:31:07;;;;;;;31.38;22.70;;;16.90;99.90;;;;;;5031099;28;20065;-75
2021/06/05 00:33:34;;;;;;;33.38;23.67;;;16.90;99.90;;;;;;5031586;28;20036;-75
2021/06/05 00:36:00;;;;;;;34.78;24.17;;;16.80;99.90;;;;;;5031734;28;20451;-75
2021/06/05 00:38:26;;;;;;;36.45;24.65;;;16.70;99.90;;;;;;5032507;28;20095;-75
2021/06/05 00:40:56;;;;;;;37.40;25.60;;;16.60;99.90;;;;;;5031450;28;20041;-75
2021/06/05 00:43:26;;;;;;;36.10;25.10;;;16.70;99.90;;;;;;5039820;28;20068;-75
2021/06/05 00:45:53;;;;;;;38.17;25.75;;;16.70;99.90;;;;;;5021382;28;20112;-75
2021/06/05 00:48:21;;;;;;;32.25;23.20;;;16.70;99.90;;;;;;5032610;28;20409;-75
2021/06/05 00:50:49;;;;;;;33.60;24.63;;;16.60;99.90;;;;;;5032775;28;20045;-75
2021/06/05 00:53:16;;;;;;;34.10;23.88;;;16.60;99.90;;;;;;5020712;28;20037;-75
2021/06/05 00:55:46;;;;;;;34.92;24.77;;;16.60;99.90;;;;;;5031857;28;20049;-75
2021/06/05 00:58:12;;;;;;;33.85;22.73;;;16.50;99.90;;;;;;5032289;28;20034;-75
2021/06/05 01:00:56;;;;;;;32.92;23.10;;;16.50;99.90;;;;;;5028684;28;20135;-75
2021/06/05 01:03:22;;;;;;;30.25;22.08;;;16.40;99.90;;;;;;5031880;28;20038;-75
2021/06/05 01:05:55;;;;;;;32.58;22.90;;;16.40;99.90;;;;;;5033693;28;20063;-75
2021/06/05 01:08:30;;;;;;;30.58;22.75;;;16.50;99.90;;;;;;5032324;28;20058;-75
2021/06/05 01:11:18;;;;;;;31.95;23.35;;;16.40;99.90;;;;;;5029741;28;20414;-75
2021/06/05 01:13:51;;;;;;;31.23;23.08;;;16.50;99.90;;;;;;5020771;28;20380;-75
2021/06/05 01:16:23;;;;;;;30.88;22.45;;;16.40;99.90;;;;;;5029035;28;20414;-75
2021/06/05 01:18:57;;;;;;;38.25;22.25;;;16.50;99.90;;;;;;5031102;28;20045;-74
2021/06/05 01:22:04;;;;;;;35.78;23.60;;;16.40;99.90;;;;;;5031468;28;20128;-75
2021/06/05 01:24:50;;;;;;;31.90;23.23;;;16.50;99.90;;;;;;4998890;28;20057;-75
2021/06/05 01:27:26;;;;;;;31.60;22.92;;;16.40;99.90;;;;;;5024130;28;20122;-76
2021/06/05 01:29:56;;;;;;;35.47;24.77;;;16.50;99.90;;;;;;5018163;28;20054;-76
2021/06/05 01:32:24;;;;;;;34.63;23.20;;;16.40;99.90;;;;;;5024956;28;20041;-76
2021/06/05 01:34:54;;;;;;;32.17;23.15;;;16.40;99.90;;;;;;5016775;28;20144;-76
2021/06/05 01:37:21;;;;;;;32.67;23.50;;;16.40;99.90;;;;;;5027868;28;20033;-75
2021/06/05 01:39:50;;;;;;;32.95;24.35;;;16.40;99.90;;;;;;5031744;28;20041;-75
2021/06/05 01:42:23;;;;;;;34.33;25.27;;;16.40;99.90;;;;;;5035669;28;20048;-75
2021/06/05 01:44:54;;;;;;;38.67;26.42;;;16.40;99.90;;;;;;5035826;28;20045;-75
2021/06/05 01:47:20;;;;;;;38.03;26.17;;;16.40;99.90;;;;;;5026225;28;20366;-75
2021/06/05 01:49:47;;;;;;;37.22;25.90;;;16.40;99.90;;;;;;5037936;28;20037;-75
2021/06/05 01:52:28;;;;;;;36.47;26.38;;;16.30;99.90;;;;;;5035608;28;20112;-75
2021/06/05 01:55:00;;;;;;;38.67;25.70;;;16.40;99.90;;;;;;5026758;28;20034;-75
2021/06/05 01:57:32;;;;;;;34.88;25.55;;;16.30;99.90;;;;;;5028976;28;20057;-75
2021/06/05 01:59:58;;;;;;;33.45;25.02;;;16.30;99.90;;;;;;5026509;28;20037;-75
2021/06/05 02:02:24;;;;;;;35.25;25.88;;;16.30;99.90;;;;;;5035306;28;20045;-75
2021/06/05 02:04:51;;;;;;;35.90;26.17;;;16.40;99.90;;;;;;5027577;28;20370;-75
2021/06/05 02:07:17;;;;;;;40.83;28.30;;;16.50;99.90;;;;;;5040857;28;20041;-75
2021/06/05 02:09:49;;;;;;;39.88;27.23;;;16.50;99.90;;;;;;5035143;28;20037;-75
2021/06/05 02:12:23;;;;;;;37.10;26.42;;;16.50;99.90;;;;;;5035215;28;20486;-75
2021/06/05 02:15:00;;;;;;;40.17;28.35;;;16.50;99.90;;;;;;5033478;28;20048;-75
2021/06/05 02:17:28;;;;;;;42.03;28.17;;;16.50;99.90;;;;;;5030937;28;20374;-75
2021/06/05 02:20:01;;;;;;;42.22;29.05;;;16.60;99.90;;;;;;5012055;28;20041;-75
2021/06/05 02:22:31;;;;;;;48.25;30.20;;;16.50;99.90;;;;;;5045617;28;20052;-75
2021/06/05 02:24:59;;;;;;;43.85;29.42;;;16.50;99.90;;;;;;5018557;28;20041;-75
2021/06/05 02:27:28;;;;;;;48.08;30.73;;;16.50;99.90;;;;;;5034391;28;20446;-75
2021/06/05 02:29:56;;;;;;;42.08;28.02;;;16.50;99.90;;;;;;5034335;28;20088;-75
2021/06/05 02:32:27;;;;;;;42.75;28.50;;;16.50;99.90;;;;;;5034029;28;20041;-76
2021/06/05 02:34:55;;;;;;;42.75;27.90;;;16.40;99.90;;;;;;5032161;28;20033;-74
2021/06/05 02:37:26;;;;;;;43.72;29.42;;;16.40;99.90;;;;;;5034835;28;20061;-75
2021/06/05 02:40:00;;;;;;;44.10;28.63;;;16.40;99.90;;;;;;5038964;28;20040;-76
2021/06/05 02:42:27;;;;;;;40.95;27.45;;;16.40;99.90;;;;;;5034723;28;20045;-76
2021/06/05 02:44:56;;;;;;;44.45;28.38;;;16.40;99.90;;;;;;5030582;28;20061;-76
2021/06/05 02:47:24;;;;;;;39.78;26.52;;;16.40;99.90;;;;;;5016767;28;20121;-76
2021/06/05 02:49:50;;;;;;;37.40;26.60;;;16.50;99.90;;;;;;4995521;28;20550;-76
2021/06/05 02:52:28;;;;;;;37.97;26.60;;;16.40;99.90;;;;;;5034185;28;20037;-76
2021/06/05 02:55:09;;;;;;;36.53;26.70;;;16.40;99.90;;;;;;5041316;28;20396;-75
2021/06/05 02:57:36;;;;;;;38.17;26.33;;;16.40;99.90;;;;;;5035747;28;20393;-75
2021/06/05 03:00:09;;;;;;;34.08;24.70;;;16.30;99.90;;;;;;5016529;28;20132;-76
2021/06/05 03:02:35;;;;;;;37.60;27.08;;;16.40;99.90;;;;;;5033859;28;20621;-76
2021/06/05 03:05:01;;;;;;;34.97;24.92;;;16.30;99.90;;;;;;5015695;28;20038;-75
2021/06/05 03:07:27;;;;;;;35.35;26.52;;;16.30;99.90;;;;;;5025250;28;20069;-75
2021/06/05 03:09:53;;;;;;;37.63;26.23;;;16.30;99.90;;;;;;5037875;28;20112;-75
2021/06/05 03:12:19;;;;;;;35.75;26.33;;;16.30;99.90;;;;;;5040503;28;20371;-75
2021/06/05 03:14:45;;;;;;;36.17;25.92;;;16.40;99.90;;;;;;5033269;28;20061;-75
2021/06/05 03:17:11;;;;;;;40.33;27.70;;;16.40;99.90;;;;;;5016326;28;20083;-75
2021/06/05 03:19:37;;;;;;;37.53;28.10;;;16.40;99.90;;;;;;5033618;28;20045;-74
2021/06/05 03:22:04;;;;;;;35.67;26.83;;;16.40;99.90;;;;;;5033887;28;20045;-75
2021/06/05 03:24:30;;;;;;;41.55;28.20;;;16.40;99.90;;;;;;5022336;28;20109;-75
2021/06/05 03:26:56;;;;;;;39.47;26.65;;;16.50;99.90;;;;;;5037068;28;20112;-75
2021/06/05 03:29:23;;;;;;;35.63;26.73;;;16.40;99.90;;;;;;5018729;28;20064;-75
2021/06/05 03:31:50;;;;;;;33.15;24.67;;;16.40;99.90;;;;;;5010301;28;20031;-75
2021/06/05 03:34:16;;;;;;;30.13;22.60;;;16.40;99.90;;;;;;5006306;28;20033;-75
2021/06/05 03:36:42;;;;;;;29.70;22.27;;;16.30;99.90;;;;;;5011780;28;20038;-75
2021/06/05 03:39:08;;;;;;;25.50;21.08;;;16.30;99.90;;;;;;5002989;28;20038;-75
2021/06/05 03:41:36;;;;;;;25.15;21.20;;;16.20;99.90;;;;;;5013026;28;20034;-75
2021/06/05 03:44:02;;;;;;;26.27;21.95;;;16.20;99.90;;;;;;5012003;28;20417;-75
2021/06/05 03:46:29;;;;;;;25.85;21.80;;;16.10;99.90;;;;;;5019565;28;20030;-76
2021/06/05 03:48:55;;;;;;;24.40;21.23;;;16.00;99.90;;;;;;5013551;28;20049;-75
2021/06/05 03:51:21;;;;;;;24.42;21.33;;;16.10;99.90;;;;;;5028910;28;20034;-75
2021/06/05 03:53:47;;;;;;;32.55;25.38;;;16.10;99.90;;;;;;5012186;28;20116;-75
2021/06/05 03:56:13;;;;;;;31.77;25.65;;;16.10;99.90;;;;;;5012061;28;20534;-75
2021/06/05 03:58:42;;;;;;;32.22;26.05;;;16.10;99.90;;;;;;5011661;28;20038;-75
2021/06/05 04:01:15;;;;;;;34.08;27.17;;;16.30;99.90;;;;;;5012209;28;20034;-75
2021/06/05 04:03:40;;;;;;;37.35;28.77;;;16.10;99.90;;;;;;5015102;28;20042;-75
2021/06/05 04:06:07;;;;;;;36.90;28.77;;;16.10;99.90;;;;;;5002689;28;20319;-74
2021/06/05 04:08:33;;;;;;;43.70;29.58;;;16.10;99.90;;;;;;5013466;28;20066;-75
2021/06/05 04:10:59;;;;;;;41.30;30.50;;;16.10;99.90;;;;;;5013094;28;20034;-75
2021/06/05 04:13:25;;;;;;;44.65;29.58;;;16.10;99.90;;;;;;5012136;28;20038;-75
2021/06/05 04:15:50;;;;;;;48.00;28.38;;;16.10;99.90;;;;;;5011333;28;20473;-76
2021/06/05 04:18:25;;;;;;;42.15;29.58;;;16.00;99.90;;;;;;4995282;28;20425;-75
2021/06/05 04:20:52;;;;;;;45.50;30.50;;;16.10;99.90;;;;;;4996085;28;20502;-75
2021/06/05 04:23:19;;;;;;;45.85;31.98;;;16.20;99.90;;;;;;5011993;28;20045;-75
2021/06/05 04:25:45;;;;;;;44.67;32.15;;;16.20;99.90;;;;;;5013238;28;20080;-74
2021/06/05 04:28:15;;;;;;;47.15;34.22;;;16.20;99.90;;;;;;5011136;28;20060;-75
2021/06/05 04:30:43;;;;;;;42.40;33.15;;;16.20;99.90;;;;;;5030745;28;20551;-75
2021/06/05 04:33:10;;;;;;;46.15;33.65;;;16.10;99.90;;;;;;5029706;28;20033;-75
2021/06/05 04:36:01;;;;;;;46.33;34.50;;;16.30;99.90;;;;;;5032742;28;20144;-75
2021/06/05 04:38:27;;;;;;;48.50;34.88;;;16.30;99.90;;;;;;5042468;28;20143;-74
2021/06/05 04:40:53;;;;;;;48.95;34.78;;;16.30;99.90;;;;;;5029600;28;20038;-74
2021/06/05 04:43:20;;;;;;;50.63;35.33;;;16.40;99.90;;;;;;5021559;28;20034;-74
2021/06/05 04:45:46;;;;;;;47.53;34.28;;;16.40;99.90;;;;;;5029360;28;20044;-74
2021/06/05 04:48:13;;;;;;;45.38;33.75;;;16.40;99.90;;;;;;5015504;28;20120;-75
2021/06/05 04:50:41;;;;;;;43.67;33.33;;;16.50;99.90;;;;;;5028733;28;20478;-74
2021/06/05 04:53:10;;;;;;;47.28;34.05;;;16.60;99.90;;;;;;5023167;28;20159;-74
2021/06/05 04:55:37;;;;;;;42.63;32.80;;;16.50;99.90;;;;;;5031708;28;20049;-74
2021/06/05 04:58:04;;;;;;;44.83;32.55;;;16.40;99.90;;;;;;5032454;28;20036;-74
2021/06/05 05:00:41;;;;;;;46.15;31.67;;;16.40;99.90;;;;;;5032109;28;20095;-74
2021/06/05 05:03:09;;;;;;;45.20;31.98;;;16.40;99.90;;;;;;5020620;28;20490;-75
2021/06/05 05:05:35;;;;;;;45.42;31.35;;;16.40;99.90;;;;;;5025570;28;20109;-75
2021/06/05 05:08:01;;;;;;;46.60;31.52;;;16.30;99.90;;;;;;5020568;28;20117;-73
2021/06/05 05:10:33;;;;;;;48.38;31.38;;;16.30;99.90;;;;;;5033249;28;20049;-74
2021/06/05 05:13:02;;;;;;;48.10;32.53;;;16.20;99.90;;;;;;5018800;28;20034;-75
2021/06/05 05:15:28;;;;;;;47.85;32.80;;;16.20;99.90;;;;;;5032134;28;20044;-76
2021/06/05 05:18:10;;;;;;;48.17;35.03;;;16.20;99.90;;;;;;5030857;28;20030;-76
2021/06/05 05:20:37;;;;;;;49.10;33.72;;;16.20;99.90;;;;;;5030987;28;20041;-76
2021/06/05 05:23:05;;;;;;;55.35;34.88;;;16.20;99.90;;;;;;5032136;28;20512;-76
2021/06/05 05:25:32;;;;;;;46.47;33.80;;;16.20;99.90;;;;;;5030810;28;20128;-76
2021/06/05 05:28:00;;;;;;;54.97;33.95;;;16.20;99.90;;;;;;5030707;28;20467;-77
2021/06/05 05:30:32;;;;;;;50.58;33.80;;;16.10;99.90;;;;;;5030521;28;20124;-75
2021/06/05 05:32:59;;;;;;;52.05;33.42;;;16.10;99.90;;;;;;5031888;28;20478;-75
2021/06/05 05:35:25;;;;;;;57.17;35.67;;;16.10;99.90;;;;;;5029824;28;20423;-75
2021/06/05 05:37:51;;;;;;;54.30;34.38;;;16.30;99.90;;;;;;5037555;28;20095;-75
2021/06/05 05:40:21;;;;;;;54.05;33.50;;;16.20;99.90;;;;;;5031738;28;20049;-75
2021/06/05 05:42:47;;;;;;;44.00;30.17;;;16.10;99.90;;;;;;5030659;28;20435;-75
2021/06/05 05:45:14;;;;;;;38.90;27.35;;;15.90;99.90;;;;;;5012737;28;20148;-74
2021/06/05 05:47:39;;;;;;;33.80;22.13;;;15.90;99.90;;;;;;5031987;28;20038;-74
2021/06/05 05:50:09;;;;;;;39.90;23.27;;;15.80;99.90;;;;;;5024361;28;20053;-74
2021/06/05 05:52:35;;;;;;;39.55;20.45;;;15.70;99.90;;;;;;5022847;28;20505;-75
2021/06/05 05:55:02;;;;;;;28.77;19.98;;;15.50;99.90;;;;;;5015035;28;20117;-75
2021/06/05 05:57:28;;;;;;;35.45;20.80;;;15.40;99.90;;;;;;5014123;28;20039;-75
2021/06/05 05:59:54;;;;;;;33.55;20.88;;;15.30;99.90;;;;;;5029620;28;20042;-75
2021/06/05 06:02:20;;;;;;;28.30;19.08;;;15.30;99.90;;;;;;5029230;28;20044;-75
2021/06/05 06:04:46;;;;;;;29.77;17.60;;;15.30;99.90;;;;;;5002906;28;20060;-75
2021/06/05 06:07:12;;;;;;;29.85;18.27;;;15.20;99.90;;;;;;5029228;28;20047;-74
2021/06/05 06:09:38;;;;;;;25.15;15.75;;;15.10;99.90;;;;;;5034000;28;20036;-74
2021/06/05 06:12:04;;;;;;;34.40;17.15;;;15.10;99.90;;;;;;5039985;28;20049;-74
2021/06/05 06:14:30;;;;;;;34.22;17.17;;;15.10;99.90;;;;;;5030482;28;20034;-74
2021/06/05 06:16:56;;;;;;;21.83;14.30;;;15.00;99.90;;;;;;5033500;28;20136;-75
2021/06/05 06:19:22;;;;;;;25.15;14.68;;;15.10;99.90;;;;;;5016120;28;20048;-75
2021/06/05 06:21:48;;;;;;;23.92;14.65;;;15.10;99.90;;;;;;5000963;28;20076;-75
2021/06/05 06:24:15;;;;;;;33.53;16.65;;;15.00;99.90;;;;;;5016502;28;20441;-75
2021/06/05 06:26:41;;;;;;;29.83;16.55;;;15.00;99.90;;;;;;5025509;28;20479;-74
2021/06/05 06:29:14;;;;;;;33.78;16.52;;;15.00;99.90;;;;;;5039669;28;20128;-74
2021/06/05 06:31:41;;;;;;;24.70;13.55;;;15.00;99.90;;;;;;5017022;28;20045;-74
2021/06/05 06:34:08;;;;;;;24.23;12.73;;;15.10;99.90;;;;;;5033217;28;20047;-75
2021/06/05 06:36:36;;;;;;;47.30;13.82;;;15.00;99.90;;;;;;5033740;28;20072;-74
2021/06/05 06:39:03;;;;;;;27.88;14.35;;;15.00;99.90;;;;;;5016308;28;20520;-74
2021/06/05 06:41:31;;;;;;;26.42;14.73;;;15.00;99.90;;;;;;5013888;28;20037;-75
2021/06/05 06:43:58;;;;;;;25.75;13.85;;;14.90;99.90;;;;;;5036405;28;20137;-75
2021/06/05 06:46:28;;;;;;;23.52;13.90;;;14.90;99.90;;;;;;5029194;28;20119;-75
2021/06/05 06:48:59;;;;;;;18.85;12.05;;;15.00;99.90;;;;;;5029611;28;20091;-74
2021/06/05 06:51:27;;;;;;;25.63;13.35;;;15.00;99.90;;;;;;5034485;28;20115;-73
2021/06/05 06:53:53;;;;;;;25.10;12.73;;;14.90;99.90;;;;;;5020321;28;20082;-75
2021/06/05 06:56:20;;;;;;;18.95;12.63;;;14.90;99.90;;;;;;5034917;28;20143;-75
2021/06/05 06:58:49;;;;;;;22.85;13.13;;;14.80;99.90;;;;;;5037999;28;20040;-75
2021/06/05 07:01:17;;;;;;;20.92;13.73;;;14.80;99.90;;;;;;5003439;28;20047;-73
2021/06/05 07:03:43;;;;;;;26.02;13.30;;;14.80;99.90;;;;;;5032239;28;20048;-73
2021/06/05 07:06:10;;;;;;;19.17;12.60;;;14.80;99.90;;;;;;5034106;28;20037;-73
2021/06/05 07:08:39;;;;;;;21.98;13.38;;;14.80;99.90;;;;;;5016863;28;20034;-74
2021/06/05 07:11:18;;;;;;;25.40;14.88;;;14.90;99.90;;;;;;5030811;28;20030;-74
2021/06/05 07:13:45;;;;;;;26.40;15.98;;;14.90;99.90;;;;;;5024156;28;20038;-75
2021/06/05 07:16:11;;;;;;;36.10;17.10;;;14.90;99.90;;;;;;5033575;28;20034;-75
2021/06/05 07:18:38;;;;;;;31.73;17.85;;;14.90;99.90;;;;;;5023494;28;20064;-74
2021/06/05 07:21:06;;;;;;;27.50;18.38;;;15.00;99.90;;;;;;5032510;28;20045;-75
2021/06/05 07:23:33;;;;;;;37.08;20.67;;;15.00;99.90;;;;;;5025840;28;20060;-74
2021/06/05 07:26:01;;;;;;;45.35;22.95;;;15.10;99.90;;;;;;5027933;28;20045;-74
2021/06/05 07:28:33;;;;;;;59.22;25.15;;;15.10;99.90;;;;;;5021627;28;20046;-74
2021/06/05 07:31:00;;;;;;;39.05;23.17;;;15.20;99.90;;;;;;5033732;28;20439;-74
2021/06/05 07:33:26;;;;;;;38.78;24.73;;;15.20;99.90;;;;;;5014665;28;20048;-74
2021/06/05 07:35:54;;;;;;;36.40;24.88;;;15.30;99.90;;;;;;5016013;28;20041;-75
2021/06/05 07:38:21;;;;;;;48.22;27.95;;;15.30;99.90;;;;;;5033486;28;20052;-78
2021/06/05 07:40:48;;;;;;;45.05;28.58;;;15.30;99.90;;;;;;5031842;28;20041;-73
2021/06/05 07:43:17;;;;;;;88.20;35.10;;;15.50;99.90;;;;;;5024530;28;20041;-73
2021/06/05 07:45:43;;;;;;;61.03;31.70;;;15.50;99.90;;;;;;5028668;28;20038;-78
2021/06/05 07:48:12;;;;;;;48.55;30.48;;;15.60;99.90;;;;;;5009026;28;20073;-78
2021/06/05 07:50:42;;;;;;;48.90;30.58;;;15.70;99.90;;;;;;5014543;28;20037;-79
2021/06/05 07:53:21;;;;;;;48.40;31.35;;;15.80;99.90;;;;;;5006205;28;20034;-79
2021/06/05 07:55:47;;;;;;;51.08;31.70;;;15.90;99.90;;;;;;5030660;28;20042;-78
2021/06/05 07:58:16;;;;;;;41.97;28.40;;;15.90;99.90;;;;;;5031970;28;20046;-78
2021/06/05 08:00:47;;;;;;;38.85;27.20;;;16.00;99.90;;;;;;5032049;28;20535;-78
2021/06/05 08:03:22;;;;;;;31.67;25.77;;;16.20;99.90;;;;;;5032981;28;20156;-78
2021/06/05 08:05:52;;;;;;;36.58;26.02;;;16.00;99.90;;;;;;5011208;28;20375;-78
2021/06/05 08:08:39;;;;;;;34.33;25.88;;;16.00;99.90;;;;;;5025451;28;20088;-79
2021/06/05 08:11:12;;;;;;;33.60;25.20;;;16.00;99.90;;;;;;5027993;28;20060;-79
2021/06/05 08:13:40;;;;;;;40.90;29.70;;;16.00;99.90;;;;;;5015114;28;20109;-80
2021/06/05 08:16:06;;;;;;;31.90;25.38;;;16.00;99.90;;;;;;5014147;28;20112;-78
2021/06/05 08:18:33;;;;;;;43.25;30.38;;;16.10;99.90;;;;;;5028762;28;20041;-77
2021/06/05 08:21:37;;;;;;;32.72;24.48;;;16.20;99.90;;;;;;5026030;28;20425;-85
2021/06/05 08:24:03;;;;;;;34.20;26.77;;;16.30;99.90;;;;;;5029521;28;20042;-76
2021/06/05 08:26:29;;;;;;;33.20;26.35;;;16.40;99.90;;;;;;5010247;28;20137;-79
2021/06/05 08:28:55;;;;;;;38.30;28.02;;;16.40;99.90;;;;;;5004946;28;20136;-74
2021/06/05 08:31:21;;;;;;;43.30;30.23;;;16.50;99.90;;;;;;5012622;28;20513;-74
2021/06/05 08:33:48;;;;;;;41.67;29.63;;;16.60;99.90;;;;;;5025414;28;20446;-74
2021/06/05 08:36:15;;;;;;;46.38;34.53;;;16.70;99.90;;;;;;5012236;28;20037;-74
2021/06/05 08:38:41;;;;;;;41.03;31.05;;;16.80;99.90;;;;;;5024281;28;20112;-74
2021/06/05 08:41:42;;;;;;;42.70;33.45;;;16.90;99.90;;;;;;5032280;28;20141;-74
2021/06/05 08:44:14;;;;;;;45.25;33.08;;;16.90;99.90;;;;;;5015348;28;20406;-74
2021/06/05 08:46:50;;;;;;;44.28;34.53;;;16.90;99.90;;;;;;5014746;28;20110;-74
2021/06/05 08:49:29;;;;;;;47.40;35.83;;;16.90;99.90;;;;;;5006931;28;20120;-74
2021/06/05 08:51:58;;;;;;;46.60;36.55;;;16.90;99.90;;;;;;5038332;28;20075;-74
2021/06/05 08:54:52;;;;;;;50.10;36.75;;;16.90;99.90;;;;;;5000931;28;20029;-74
2021/06/05 08:57:57;;;;;;;49.53;37.53;;;16.90;99.90;;;;;;5000617;28;20091;-74
2021/06/05 09:00:38;;;;;;;47.45;38.05;;;17.00;99.90;;;;;;5031483;28;20080;-76
2021/06/05 09:03:20;;;;;;;45.88;36.78;;;17.10;99.90;;;;;;5021912;28;20034;-77
2021/06/05 09:06:22;;;;;;;46.30;36.55;;;17.10;99.90;;;;;;5012792;28;20054;-74
2021/06/05 09:08:49;;;;;;;48.58;35.95;;;17.10;99.90;;;;;;5014680;28;20052;-74
2021/06/05 09:11:16;;;;;;;45.53;37.00;;;17.10;99.90;;;;;;5033081;28;20041;-74
2021/06/05 09:13:42;;;;;;;51.92;37.15;;;17.00;99.90;;;;;;5010564;28;20042;-74
2021/06/05 09:16:20;;;;;;;46.40;36.28;;;17.00;99.90;;;;;;5028874;28;20029;-74
2021/06/05 09:19:09;;;;;;;52.42;37.83;;;17.00;99.90;;;;;;5012432;28;20485;-74
2021/06/05 09:21:46;;;;;;;55.60;41.83;;;16.90;99.90;;;;;;5029887;28;20113;-77
2021/06/05 09:24:15;;;;;;;55.28;40.08;;;16.80;99.90;;;;;;5011575;28;20036;-77
2021/06/05 09:26:45;;;;;;;51.50;40.20;;;16.80;99.90;;;;;;5031751;28;20389;-74
2021/06/05 09:29:20;;;;;;;58.25;41.47;;;16.90;99.90;;;;;;5018091;28;20525;-74
2021/06/05 09:32:06;;;;;;;52.47;41.15;;;16.80;99.90;;;;;;5025214;28;20034;-74
2021/06/05 09:34:38;;;;;;;66.68;44.17;;;16.70;99.90;;;;;;5026392;28;20472;-74
2021/06/05 09:37:06;;;;;;;56.40;42.47;;;16.80;99.90;;;;;;5032484;28;20065;-74
2021/06/05 09:39:57;;;;;;;56.10;41.42;;;16.80;99.90;;;;;;5041058;28;20064;-74
2021/06/05 09:42:32;;;;;;;59.13;40.45;;;16.80;99.90;;;;;;5003115;28;20087;-74
2021/06/05 09:45:00;;;;;;;58.78;41.30;;;16.70;99.90;;;;;;5035326;28;20041;-74
2021/06/05 09:47:30;;;;;;;55.47;40.67;;;16.60;99.90;;;;;;5029563;28;20527;-74
2021/06/05 09:50:19;;;;;;;61.67;41.50;;;16.70;99.90;;;;;;5027585;28;20041;-74
2021/06/05 09:52:45;;;;;;;56.30;41.67;;;16.70;99.90;;;;;;5035421;28;20034;-74
2021/06/05 09:55:14;;;;;;;57.28;43.30;;;16.70;99.90;;;;;;5033989;28;20050;-74
2021/06/05 09:57:43;;;;;;;71.18;44.40;;;16.70;99.90;;;;;;5038213;28;20079;-74
2021/06/05 10:00:14;;;;;;;59.22;41.08;;;16.80;99.90;;;;;;5035338;28;20042;-77
2021/06/05 10:02:44;;;;;;;64.43;43.95;;;16.70;99.90;;;;;;5028838;28;20036;-77
2021/06/05 10:05:36;;;;;;;64.00;43.55;;;16.70;99.90;;;;;;5024691;28;20050;-77
2021/06/05 10:08:34;;;;;;;54.97;40.17;;;16.70;99.90;;;;;;5024613;28;20036;-77
2021/06/05 10:11:29;;;;;;;61.15;42.72;;;16.70;99.90;;;;;;5032401;28;20037;-74
2021/06/05 10:14:03;;;;;;;53.17;39.05;;;16.80;99.90;;;;;;5032922;28;20430;-74
2021/06/05 10:16:30;;;;;;;53.00;39.10;;;16.80;99.90;;;;;;5017049;28;20065;-77
2021/06/05 10:19:10;;;;;;;55.67;41.25;;;16.80;99.90;;;;;;5005670;28;20034;-78
2021/06/05 10:21:39;;;;;;;55.67;41.58;;;16.80;99.90;;;;;;5034767;28;20050;-77
2021/06/05 10:24:30;;;;;;;59.50;42.55;;;16.80;99.90;;;;;;5035114;28;20045;-77
2021/06/05 10:26:58;;;;;;;77.63;46.88;;;16.80;99.90;;;;;;5015460;28;20084;-74
2021/06/05 10:29:43;;;;;;;59.50;43.25;;;16.90;99.90;;;;;;5028944;28;20052;-75
2021/06/05 10:32:14;;;;;;;53.00;38.75;;;16.90;99.90;;;;;;5040436;28;20067;-77
2021/06/05 10:34:50;;;;;;;53.00;40.10;;;16.90;99.90;;;;;;5031994;28;20047;-74
2021/06/05 10:37:20;;;;;;;70.30;42.75;;;16.90;99.90;;;;;;5025444;28;20038;-78
2021/06/05 10:39:48;;;;;;;55.30;40.95;;;16.90;99.90;;;;;;5005814;28;20532;-74
2021/06/05 10:42:44;;;;;;;64.05;43.10;;;16.90;99.90;;;;;;5030607;28;20046;-77
2021/06/05 10:45:32;;;;;;;69.22;43.75;;;17.00;99.90;;;;;;5028680;28;20449;-77
2021/06/05 10:48:14;;;;;;;55.88;40.97;;;17.00;99.90;;;;;;5026619;28;20044;-77
2021/06/05 10:50:50;;;;;;;64.78;44.28;;;17.20;99.90;;;;;;5032249;28;20112;-78
2021/06/05 10:53:51;;;;;;;65.07;44.00;;;17.20;99.90;;;;;;5034356;28;20038;-77
2021/06/05 10:56:35;;;;;;;66.45;44.15;;;17.30;99.90;;;;;;5000769;28;20053;-77
2021/06/05 10:59:03;;;;;;;57.03;41.35;;;17.40;99.90;;;;;;5030255;28;20343;-77
2021/06/05 11:01:29;;;;;;;51.38;40.00;;;17.40;99.90;;;;;;5030550;28;20116;-77
2021/06/05 11:04:26;;;;;;;58.58;40.53;;;17.40;99.90;;;;;;5039031;28;20060;-77
2021/06/05 11:06:52;;;;;;;62.67;43.70;;;17.40;99.90;;;;;;5029958;28;20048;-77
2021/06/05 11:09:29;;;;;;;57.92;43.00;;;17.50;99.90;;;;;;5013721;28;20120;-77
2021/06/05 11:12:00;;;;;;;55.22;42.35;;;17.60;99.90;;;;;;5028394;28;20041;-77
2021/06/05 11:14:35;;;;;;;55.58;41.70;;;17.50;99.90;;;;;;5032608;28;20379;-77
2021/06/05 11:17:02;;;;;;;50.13;39.88;;;17.70;99.90;;;;;;5033812;28;20037;-77
2021/06/05 11:19:41;;;;;;;52.50;40.63;;;17.80;99.90;;;;;;5014698;28;20064;-77
2021/06/05 11:22:12;;;;;;;60.85;44.38;;;17.80;99.90;;;;;;5028694;28;20038;-78
2021/06/05 11:25:07;;;;;;;49.80;39.45;;;17.80;99.90;;;;;;5028538;28;20050;-75
2021/06/05 11:27:38;;;;;;;57.67;41.70;;;17.80;99.90;;;;;;5032116;28;20061;-74
2021/06/05 11:30:08;;;;;;;48.75;38.17;;;17.80;99.90;;;;;;5015221;28;20137;-77
2021/06/05 11:32:48;;;;;;;55.40;43.05;;;17.90;99.90;;;;;;5027446;28;20057;-75
2021/06/05 11:35:32;;;;;;;53.85;41.53;;;17.90;99.90;;;;;;5014943;28;20042;-74
2021/06/05 11:38:02;;;;;;;54.22;41.55;;;17.90;99.90;;;;;;5033358;28;20393;-74
2021/06/05 11:40:52;;;;;;;55.85;41.20;;;18.00;99.90;;;;;;5032446;28;20048;-77
2021/06/05 11:43:30;;;;;;;56.28;44.53;;;18.00;99.90;;;;;;5026232;28;20041;-77
2021/06/05 11:45:59;;;;;;;64.07;49.50;;;18.00;99.90;;;;;;5016962;28;20030;-77
2021/06/05 11:48:41;;;;;;;63.78;47.88;;;18.00;99.90;;;;;;5013603;28;20042;-77
2021/06/05 11:51:22;;;;;;;58.90;46.67;;;18.00;99.90;;;;;;5026122;28;20033;-78
2021/06/05 11:54:19;;;;;;;60.88;48.28;;;18.00;99.90;;;;;;5020351;28;20485;-77
2021/06/05 11:56:55;;;;;;;59.97;45.88;;;18.00;99.90;;;;;;5030416;28;20176;-77
2021/06/05 11:59:33;;;;;;;60.33;46.35;;;18.00;99.90;;;;;;5030893;28;20041;-74
2021/06/05 12:02:19;;;;;;;63.33;47.55;;;18.10;99.90;;;;;;5024559;28;20124;-74
2021/06/05 12:04:48;;;;;;;63.85;50.00;;;18.10;99.90;;;;;;5000350;28;20047;-75
2021/06/05 12:07:33;;;;;;;62.88;48.97;;;18.10;99.90;;;;;;5032950;28;20064;-74
2021/06/05 12:10:00;;;;;;;59.67;47.53;;;18.20;99.90;;;;;;5033537;28;20065;-75
2021/06/05 12:12:30;;;;;;;62.05;48.33;;;18.20;99.90;;;;;;5009362;28;20063;-74
2021/06/05 12:15:16;;;;;;;65.88;49.90;;;18.10;99.90;;;;;;5032797;28;20030;-77
2021/06/05 12:17:43;;;;;;;59.33;46.70;;;18.20;99.90;;;;;;5031518;28;20034;-77
2021/06/05 12:20:24;;;;;;;60.47;45.47;;;18.10;99.90;;;;;;5032490;28;20049;-74
2021/06/05 12:22:57;;;;;;;65.30;47.50;;;18.10;99.90;;;;;;5030542;28;20033;-74
2021/06/05 12:25:32;;;;;;;60.03;46.38;;;18.00;99.90;;;;;;5031845;28;20037;-74
2021/06/05 12:28:10;;;;;;;62.28;47.08;;;18.00;99.90;;;;;;5018544;28;20061;-74
2021/06/05 12:30:41;;;;;;;55.60;43.58;;;18.00;99.90;;;;;;5025438;28;20050;-73
2021/06/05 12:33:09;;;;;;;55.13;43.53;;;17.90;99.90;;;;;;5028760;28;20071;-73
2021/06/05 12:35:42;;;;;;;53.60;42.03;;;18.00;99.90;;;;;;5019914;28;20045;-77
2021/06/05 12:38:14;;;;;;;55.08;44.50;;;18.00;99.90;;;;;;5025510;28;20465;-73
2021/06/05 12:41:00;;;;;;;56.42;43.75;;;17.90;99.90;;;;;;5032961;28;20033;-74
2021/06/05 12:43:30;;;;;;;;;;;17.90;99.90;;;;;;5031004;28;20065;-73
2021/06/05 12:46:03;;;;;;;54.05;43.08;;;17.90;99.90;;;;;;5025043;28;19917;-76
2021/06/05 12:48:29;;;;;;;52.42;41.42;;;17.90;99.90;;;;;;5031553;28;20038;-74
2021/06/05 12:50:57;;;;;;;48.08;40.33;;;17.90;99.90;;;;;;5027881;28;20482;-74